Time;durP1;ratioP1;P1;durP2;ratioP2;P2;SDS_P1;SDS_P2;PMS_P1;PMS_P2;Temp;Humidity;BMP_temperature;BMP_pressure;BME280_temperature;BME280_humidity;BME280_pressure;Samples;Min_cycle;Max_cycle;Signal;HPM_P1;HPM_P2
2022/07/24 00:02:23;;;;;;;8.65;4.90;;;;;;;;;;5101240;28;20242;-84
2022/07/24 00:04:56;;;;;;;10.57;5.20;;;;;;;;;;5111262;22;20225;-84
2022/07/24 00:07:23;;;;;;;4.90;4.40;;;;;;;;;;5073035;28;20566;-84
2022/07/24 00:09:50;;;;;;;5.28;4.55;;;;;;;;;;5073180;28;20209;-84
2022/07/24 00:12:17;;;;;;;7.35;5.03;;;;;;;;;;5074762;28;20213;-84
2022/07/24 00:14:44;;;;;;;6.97;4.68;;;;;;;;;;5075645;28;20225;-84
2022/07/24 00:17:11;;;;;;;6.15;4.53;;;;;;;;;;5072908;28;20205;-84
2022/07/24 00:19:38;;;;;;;6.65;5.25;;;;;;;;;;5072251;28;20237;-84
2022/07/24 00:22:06;;;;;;;8.45;4.97;;;;;;;;;;5072305;28;20213;-84
2022/07/24 00:24:33;;;;;;;8.25;5.20;;;;;;;;;;5072176;28;20240;-84
2022/07/24 00:27:01;;;;;;;14.00;5.55;;;;;;;;;;5072381;28;20209;-84
2022/07/24 00:29:28;;;;;;;8.90;5.07;;;;;;;;;;5071903;28;20322;-85
2022/07/24 00:31:56;;;;;;;6.85;5.70;;;;;;;;;;5072460;28;20588;-84
2022/07/24 00:34:23;;;;;;;6.82;5.70;;;;;;;;;;5072667;28;20260;-84
2022/07/24 00:36:50;;;;;;;6.63;5.13;;;;;;;;;;5072293;28;20212;-84
2022/07/24 00:39:18;;;;;;;6.05;5.45;;;;;;;;;;5071978;28;20240;-84
2022/07/24 00:41:45;;;;;;;6.68;4.85;;;;;;;;;;5072197;28;20205;-84
2022/07/24 00:44:13;;;;;;;8.75;5.70;;;;;;;;;;5071778;28;20591;-84
2022/07/24 00:46:41;;;;;;;6.13;5.25;;;;;;;;;;5072489;28;20205;-84
2022/07/24 00:49:10;;;;;;;7.18;5.00;;;;;;;;;;5071764;28;20233;-84
2022/07/24 00:51:37;;;;;;;5.25;4.70;;;;;;;;;;5072536;28;20208;-84
2022/07/24 00:54:04;;;;;;;7.22;5.43;;;;;;;;;;5071685;28;20241;-84
2022/07/24 00:56:33;;;;;;;5.18;4.57;;;;;;;;;;5072393;28;20237;-84
2022/07/24 00:59:01;;;;;;;5.70;5.15;;;;;;;;;;5071484;28;20237;-85
2022/07/24 01:01:28;;;;;;;5.32;4.82;;;;;;;;;;5071577;28;20680;-84
2022/07/24 01:03:55;;;;;;;6.05;4.90;;;;;;;;;;5071069;28;20735;-84
2022/07/24 01:06:22;;;;;;;6.95;5.50;;;;;;;;;;5075366;28;20227;-84
2022/07/24 01:08:49;;;;;;;6.68;5.05;;;;;;;;;;5071932;28;20245;-85
2022/07/24 01:11:16;;;;;;;7.47;4.90;;;;;;;;;;5072056;28;20209;-84
2022/07/24 01:13:45;;;;;;;6.07;4.97;;;;;;;;;;5075704;28;20241;-84
2022/07/24 01:16:12;;;;;;;5.90;4.88;;;;;;;;;;5076315;28;20216;-84
2022/07/24 01:18:39;;;;;;;5.80;4.63;;;;;;;;;;5075775;28;20244;-84
2022/07/24 01:21:08;;;;;;;8.07;4.82;;;;;;;;;;5075601;28;20217;-84
2022/07/24 01:23:35;;;;;;;5.82;5.22;;;;;;;;;;5075263;28;20245;-85
2022/07/24 01:26:02;;;;;;;5.22;4.50;;;;;;;;;;5075476;28;20614;-84
2022/07/24 01:28:29;;;;;;;7.18;4.85;;;;;;;;;;5075465;28;20716;-84
2022/07/24 01:30:56;;;;;;;6.22;5.00;;;;;;;;;;5075921;28;20216;-84
2022/07/24 01:33:23;;;;;;;5.88;5.15;;;;;;;;;;5075199;28;20245;-84
2022/07/24 01:35:51;;;;;;;6.43;4.82;;;;;;;;;;5075663;28;20213;-84
2022/07/24 01:38:20;;;;;;;6.18;5.18;;;;;;;;;;5075140;28;20225;-84
2022/07/24 01:40:47;;;;;;;7.88;5.78;;;;;;;;;;5075637;28;20216;-84
2022/07/24 01:43:14;;;;;;;5.68;4.60;;;;;;;;;;5075290;28;20233;-84
2022/07/24 01:45:41;;;;;;;7.53;5.35;;;;;;;;;;5075580;28;20229;-85
2022/07/24 01:48:09;;;;;;;8.77;5.70;;;;;;;;;;5074883;28;20606;-84
2022/07/24 01:50:36;;;;;;;6.57;5.47;;;;;;;;;;5075198;28;20304;-84
2022/07/24 01:53:03;;;;;;;6.30;4.80;;;;;;;;;;5074451;28;20257;-85
2022/07/24 01:55:32;;;;;;;6.65;5.13;;;;;;;;;;5075464;28;20296;-85
2022/07/24 01:57:59;;;;;;;6.00;5.00;;;;;;;;;;5074910;28;20237;-85
2022/07/24 02:00:26;;;;;;;5.90;4.93;;;;;;;;;;5084162;28;20205;-85
2022/07/24 02:02:53;;;;;;;5.60;5.07;;;;;;;;;;5094567;28;20255;-86
2022/07/24 02:05:20;;;;;;;8.57;5.45;;;;;;;;;;5094798;28;20236;-86
2022/07/24 02:07:55;;;;;;;5.95;5.05;;;;;;;;;;5094599;28;20256;-86
2022/07/24 02:10:23;;;;;;;6.07;5.45;;;;;;;;;;5095239;28;20208;-86
2022/07/24 02:12:51;;;;;;;5.80;5.20;;;;;;;;;;5094518;28;20707;-86
2022/07/24 02:15:18;;;;;;;6.20;4.60;;;;;;;;;;5094799;28;20220;-86
2022/07/24 02:17:47;;;;;;;5.72;5.20;;;;;;;;;;5094500;28;20232;-86
2022/07/24 02:20:14;;;;;;;6.20;5.55;;;;;;;;;;5094688;28;20193;-86
2022/07/24 02:22:41;;;;;;;4.95;4.43;;;;;;;;;;5093581;28;20586;-86
2022/07/24 02:25:09;;;;;;;6.18;4.80;;;;;;;;;;5093625;28;20757;-86
2022/07/24 02:27:36;;;;;;;5.25;4.75;;;;;;;;;;5094042;28;20712;-86
2022/07/24 02:30:05;;;;;;;5.35;4.88;;;;;;;;;;5094775;28;20200;-86
2022/07/24 02:32:32;;;;;;;6.28;5.68;;;;;;;;;;5094053;28;20256;-86
2022/07/24 02:34:59;;;;;;;5.30;4.80;;;;;;;;;;5094836;28;20227;-86
2022/07/24 02:37:26;;;;;;;4.97;4.50;;;;;;;;;;5094086;28;20592;-85
2022/07/24 02:39:53;;;;;;;6.45;4.80;;;;;;;;;;5094937;28;20240;-86
2022/07/24 02:42:20;;;;;;;5.90;4.88;;;;;;;;;;5093717;28;20572;-86
2022/07/24 02:44:47;;;;;;;8.60;4.85;;;;;;;;;;5094240;28;20235;-86
2022/07/24 02:47:16;;;;;;;6.18;4.72;;;;;;;;;;5093880;28;20227;-86
2022/07/24 02:49:43;;;;;;;6.78;4.90;;;;;;;;;;5094612;28;20216;-86
2022/07/24 02:52:10;;;;;;;5.63;5.03;;;;;;;;;;5093894;28;20614;-86
2022/07/24 02:54:37;;;;;;;5.82;5.18;;;;;;;;;;5094208;28;20696;-86
2022/07/24 02:57:04;;;;;;;5.33;4.83;;;;;;;;;;5094422;28;20212;-86
2022/07/24 02:59:31;;;;;;;5.70;5.10;;;;;;;;;;5093420;28;20239;-86
2022/07/24 03:01:58;;;;;;;5.20;4.70;;;;;;;;;;5093867;28;20201;-86
2022/07/24 03:04:26;;;;;;;7.53;5.07;;;;;;;;;;5092990;28;20243;-86
2022/07/24 03:06:54;;;;;;;4.95;4.55;;;;;;;;;;5093954;28;20208;-86
2022/07/24 03:09:21;;;;;;;5.00;4.60;;;;;;;;;;5093273;28;20229;-85
2022/07/24 03:11:48;;;;;;;6.17;5.13;;;;;;;;;;5092546;28;20363;-85
2022/07/24 03:14:15;;;;;;;6.95;5.53;;;;;;;;;;5093359;28;20233;-85
2022/07/24 03:16:42;;;;;;;5.60;4.80;;;;;;;;;;5093847;28;20212;-85
2022/07/24 03:19:09;;;;;;;6.47;5.80;;;;;;;;;;5093284;28;20236;-86
2022/07/24 03:21:37;;;;;;;5.70;5.20;;;;;;;;;;5093311;28;20204;-85
2022/07/24 03:24:05;;;;;;;5.43;4.87;;;;;;;;;;5093193;28;20603;-86
2022/07/24 03:26:32;;;;;;;5.43;4.80;;;;;;;;;;5093463;28;20590;-86
2022/07/24 03:28:59;;;;;;;9.57;5.38;;;;;;;;;;5092967;28;20233;-86
2022/07/24 03:31:26;;;;;;;6.82;5.13;;;;;;;;;;5093672;28;20212;-86
2022/07/24 03:33:53;;;;;;;5.20;4.70;;;;;;;;;;5093194;28;20263;-86
2022/07/24 03:36:20;;;;;;;5.40;4.90;;;;;;;;;;5093169;28;20204;-86
2022/07/24 03:38:48;;;;;;;5.53;5.00;;;;;;;;;;5092876;28;20248;-86
2022/07/24 03:41:15;;;;;;;7.47;5.50;;;;;;;;;;5093347;28;20211;-86
2022/07/24 03:43:42;;;;;;;5.30;4.80;;;;;;;;;;5092813;28;20236;-86
2022/07/24 03:46:09;;;;;;;6.10;5.33;;;;;;;;;;5093627;28;20212;-86
2022/07/24 03:48:36;;;;;;;5.93;5.38;;;;;;;;;;5093028;28;20646;-85
2022/07/24 03:51:03;;;;;;;6.23;5.47;;;;;;;;;;5093448;28;20703;-85
2022/07/24 03:53:30;;;;;;;6.87;5.63;;;;;;;;;;5092907;28;20244;-85
2022/07/24 03:55:59;;;;;;;5.80;4.87;;;;;;;;;;5093429;28;20204;-85
2022/07/24 03:58:26;;;;;;;5.93;5.30;;;;;;;;;;5093574;28;20236;-86
2022/07/24 04:00:53;;;;;;;5.57;5.03;;;;;;;;;;5079561;28;20208;-85
2022/07/24 04:03:20;;;;;;;5.77;5.10;;;;;;;;;;5072540;28;20245;-85
2022/07/24 04:05:47;;;;;;;5.80;5.20;;;;;;;;;;5073129;28;20217;-85
2022/07/24 04:08:14;;;;;;;7.37;5.13;;;;;;;;;;5072465;28;20606;-85
2022/07/24 04:10:41;;;;;;;6.50;5.43;;;;;;;;;;5073125;28;20249;-86
2022/07/24 04:13:10;;;;;;;6.77;5.07;;;;;;;;;;5071902;28;20233;-85
2022/07/24 04:15:37;;;;;;;5.33;4.83;;;;;;;;;;5072373;28;20834;-86
2022/07/24 04:18:04;;;;;;;6.10;5.40;;;;;;;;;;5072780;28;20233;-85
2022/07/24 04:20:33;;;;;;;6.70;5.10;;;;;;;;;;5072438;28;20209;-85
2022/07/24 04:23:00;;;;;;;5.83;5.23;;;;;;;;;;5071873;28;20241;-86
2022/07/24 04:25:27;;;;;;;8.17;5.47;;;;;;;;;;5072172;28;20841;-86
2022/07/24 04:27:54;;;;;;;5.63;5.13;;;;;;;;;;5072461;28;20233;-86
2022/07/24 04:30:22;;;;;;;6.43;5.73;;;;;;;;;;5073240;28;20205;-86
2022/07/24 04:32:49;;;;;;;6.63;5.50;;;;;;;;;;5071713;28;20233;-84
2022/07/24 04:35:16;;;;;;;7.27;5.40;;;;;;;;;;5072281;28;20225;-85
2022/07/24 04:37:44;;;;;;;8.03;5.20;;;;;;;;;;5071977;28;20237;-84
2022/07/24 04:40:12;;;;;;;7.87;5.50;;;;;;;;;;5072494;28;20743;-85
2022/07/24 04:42:39;;;;;;;8.43;5.87;;;;;;;;;;5071887;28;20692;-85
2022/07/24 04:45:08;;;;;;;5.70;5.10;;;;;;;;;;5072595;28;20225;-85
2022/07/24 04:47:36;;;;;;;6.67;5.47;;;;;;;;;;5074557;28;20232;-86
2022/07/24 04:50:04;;;;;;;7.57;5.53;;;;;;;;;;5077751;28;20292;-86
2022/07/24 04:52:31;;;;;;;7.73;5.47;;;;;;;;;;5077696;28;20235;-86
2022/07/24 04:54:58;;;;;;;8.50;5.83;;;;;;;;;;5079004;28;20774;-86
2022/07/24 04:57:25;;;;;;;6.17;5.57;;;;;;;;;;5078273;28;20204;-86
2022/07/24 04:59:55;;;;;;;6.73;5.87;;;;;;;;;;5080914;28;20207;-85
2022/07/24 05:02:22;;;;;;;8.63;6.27;;;;;;;;;;5096470;28;20204;-85
2022/07/24 05:04:51;;;;;;;7.03;6.13;;;;;;;;;;5096651;28;20243;-85
2022/07/24 05:07:18;;;;;;;8.23;6.07;;;;;;;;;;5096130;28;20228;-85
2022/07/24 05:09:45;;;;;;;6.43;5.57;;;;;;;;;;5096157;28;20574;-85
2022/07/24 05:12:12;;;;;;;6.33;5.60;;;;;;;;;;5096926;28;20204;-85
2022/07/24 05:14:39;;;;;;;7.00;5.97;;;;;;;;;;5097821;28;20221;-84
2022/07/24 05:17:06;;;;;;;7.83;5.97;;;;;;;;;;5098044;28;20578;-86
2022/07/24 05:19:33;;;;;;;9.10;5.70;;;;;;;;;;5096933;28;20232;-85
2022/07/24 05:22:02;;;;;;;8.40;6.17;;;;;;;;;;5095896;28;20204;-86
2022/07/24 05:24:39;;;;;;;9.77;6.00;;;;;;;;;;5095210;28;20241;-86
2022/07/24 05:27:06;;;;;;;15.23;7.57;;;;;;;;;;5095892;28;20224;-86
2022/07/24 05:29:33;;;;;;;8.37;6.60;;;;;;;;;;5095119;28;20711;-86
2022/07/24 05:32:01;;;;;;;14.33;6.60;;;;;;;;;;5095749;28;20220;-86
2022/07/24 05:34:29;;;;;;;9.33;7.07;;;;;;;;;;5095406;28;20244;-86
2022/07/24 05:36:56;;;;;;;8.27;6.93;;;;;;;;;;5095802;28;20232;-86
2022/07/24 05:39:24;;;;;;;13.73;7.23;;;;;;;;;;5095343;28;20248;-86
2022/07/24 05:41:52;;;;;;;13.73;7.27;;;;;;;;;;5096619;28;20205;-86
2022/07/24 05:44:19;;;;;;;8.00;6.70;;;;;;;;;;5096175;28;20240;-86
2022/07/24 05:46:46;;;;;;;10.80;6.83;;;;;;;;;;5095473;28;20228;-86
2022/07/24 05:49:13;;;;;;;9.67;7.60;;;;;;;;;;5095155;28;20236;-86
2022/07/24 05:51:40;;;;;;;8.13;7.30;;;;;;;;;;5095350;28;20215;-86
2022/07/24 05:54:07;;;;;;;8.13;7.13;;;;;;;;;;5095009;28;20641;-86
2022/07/24 05:56:35;;;;;;;9.05;6.63;;;;;;;;;;5095302;28;20208;-86
2022/07/24 05:59:02;;;;;;;7.30;6.57;;;;;;;;;;5094797;28;20229;-86
2022/07/24 06:01:29;;;;;;;10.05;6.75;;;;;;;;;;5095335;28;20207;-86
2022/07/24 06:03:56;;;;;;;12.15;6.78;;;;;;;;;;5078613;22;1141623;-84
2022/07/24 06:06:24;;;;;;;8.02;7.22;;;;;;;;;;5095653;28;20229;-86
2022/07/24 06:08:51;;;;;;;7.82;6.57;;;;;;;;;;5094863;28;20233;-85
2022/07/24 06:11:18;;;;;;;13.73;7.70;;;;;;;;;;5095663;28;20196;-85
2022/07/24 06:13:46;;;;;;;7.90;6.63;;;;;;;;;;5094914;28;20355;-85
2022/07/24 06:16:13;;;;;;;8.25;7.18;;;;;;;;;;5095476;28;20216;-85
2022/07/24 06:18:41;;;;;;;11.60;7.03;;;;;;;;;;5094682;28;20239;-85
2022/07/24 06:21:09;;;;;;;9.88;7.20;;;;;;;;;;5095329;28;20220;-85
2022/07/24 06:23:36;;;;;;;8.32;6.40;;;;;;;;;;5096620;28;20228;-82
2022/07/24 06:26:03;;;;;;;9.45;6.50;;;;;;;;;;5097818;28;20236;-85
2022/07/24 06:28:30;;;;;;;7.40;6.78;;;;;;;;;;5095615;28;20696;-86
2022/07/24 06:30:58;;;;;;;7.57;6.22;;;;;;;;;;5095738;28;20240;-87
2022/07/24 06:33:31;;;;;;;7.90;6.30;;;;;;;;;;5082143;28;20236;-87
2022/07/24 06:35:58;;;;;;;7.32;6.28;;;;;;;;;;5079682;28;20188;-87
2022/07/24 06:38:25;;;;;;;7.10;5.72;;;;;;;;;;5070575;28;20229;-86
2022/07/24 06:40:55;;;;;;;6.03;5.43;;;;;;;;;;5076834;28;20209;-87
2022/07/24 06:43:22;;;;;;;6.45;5.47;;;;;;;;;;5076077;28;20244;-85
2022/07/24 06:45:49;;;;;;;5.53;5.03;;;;;;;;;;5075749;28;20229;-87
2022/07/24 06:48:18;;;;;;;7.32;4.95;;;;;;;;;;5075327;28;20249;-87
2022/07/24 06:50:46;;;;;;;5.75;5.13;;;;;;;;;;5076490;28;20206;-87
2022/07/24 06:53:13;;;;;;;5.88;5.28;;;;;;;;;;5076137;28;20671;-87
2022/07/24 06:55:40;;;;;;;5.50;4.88;;;;;;;;;;5081669;28;20236;-88
2022/07/24 06:58:07;;;;;;;7.07;5.25;;;;;;;;;;5076814;28;20244;-88
2022/07/24 07:00:34;;;;;;;5.82;5.07;;;;;;;;;;5076078;28;20220;-87
2022/07/24 07:03:01;;;;;;;4.93;4.47;;;;;;;;;;5075253;28;20639;-86
2022/07/24 07:05:29;;;;;;;5.50;4.13;;;;;;;;;;5080712;28;20240;-87
2022/07/24 07:07:57;;;;;;;7.03;4.20;;;;;;;;;;5086697;28;20323;-87
2022/07/24 07:10:24;;;;;;;5.15;4.18;;;;;;;;;;5076441;28;20835;-88
2022/07/24 07:12:51;;;;;;;6.40;4.65;;;;;;;;;;5076073;28;20237;-88
2022/07/24 07:15:18;;;;;;;4.10;3.70;;;;;;;;;;5076071;28;20236;-88
2022/07/24 07:17:45;;;;;;;6.20;3.83;;;;;;;;;;5076401;28;20756;-88
2022/07/24 07:20:13;;;;;;;5.55;4.00;;;;;;;;;;5077748;28;20213;-88
2022/07/24 07:22:42;;;;;;;5.68;4.28;;;;;;;;;;5076990;28;20229;-87
2022/07/24 07:25:10;;;;;;;9.98;4.05;;;;;;;;;;5076292;28;20229;-81
2022/07/24 07:27:39;;;;;;;4.10;3.70;;;;;;;;;;5071405;28;20233;-79
2022/07/24 07:30:07;;;;;;;5.85;4.18;;;;;;;;;;5057654;28;20241;-78
2022/07/24 07:32:34;;;;;;;9.93;6.57;;;;;;;;;;5067514;28;20233;-76
2022/07/24 07:35:02;;;;;;;4.22;3.50;;;;;;;;;;5073693;28;20312;-79
2022/07/24 07:37:29;;;;;;;5.43;3.33;;;;;;;;;;5079598;28;20194;-79
2022/07/24 07:39:58;;;;;;;3.97;3.65;;;;;;;;;;5059896;28;20206;-78
2022/07/24 07:42:25;;;;;;;4.72;3.95;;;;;;;;;;5064681;28;20556;-80
2022/07/24 07:44:52;;;;;;;5.35;3.47;;;;;;;;;;5066702;28;20222;-78
2022/07/24 07:47:19;;;;;;;6.05;3.78;;;;;;;;;;5060136;28;20222;-79
2022/07/24 07:49:46;;;;;;;3.90;3.53;;;;;;;;;;5054518;28;20201;-78
2022/07/24 07:52:13;;;;;;;3.83;3.53;;;;;;;;;;5056201;28;20197;-79
2022/07/24 07:54:40;;;;;;;4.20;3.70;;;;;;;;;;5055858;28;20226;-79
2022/07/24 07:57:09;;;;;;;3.95;3.55;;;;;;;;;;5064737;28;20185;-80
2022/07/24 07:59:36;;;;;;;4.43;3.80;;;;;;;;;;5068402;28;20225;-79
2022/07/24 08:02:03;;;;;;;4.07;3.67;;;;;;;;;;5056244;28;20201;-79
2022/07/24 08:04:30;;;;;;;6.28;4.20;;;;;;;;;;5063494;28;20256;-79
2022/07/24 08:06:58;;;;;;;4.97;3.80;;;;;;;;;;5070712;28;20707;-79
2022/07/24 08:09:25;;;;;;;3.60;3.30;;;;;;;;;;5058455;28;20228;-78
2022/07/24 08:11:52;;;;;;;3.95;3.55;;;;;;;;;;5067539;28;20193;-81
2022/07/24 08:14:20;;;;;;;4.85;3.22;;;;;;;;;;5060510;28;20229;-79
2022/07/24 08:16:47;;;;;;;4.47;3.80;;;;;;;;;;5073333;28;20209;-80
2022/07/24 08:19:14;;;;;;;4.10;3.72;;;;;;;;;;5080378;28;20248;-81
2022/07/24 08:21:41;;;;;;;5.70;3.60;;;;;;;;;;5081378;28;20212;-80
2022/07/24 08:24:09;;;;;;;4.20;3.72;;;;;;;;;;5081660;28;20257;-80
2022/07/24 08:26:36;;;;;;;3.97;3.45;;;;;;;;;;5059131;28;20230;-80
2022/07/24 08:29:03;;;;;;;3.80;3.50;;;;;;;;;;5082244;28;20592;-80
2022/07/24 08:31:31;;;;;;;4.13;3.50;;;;;;;;;;5058061;28;20198;-79
2022/07/24 08:33:58;;;;;;;3.58;3.28;;;;;;;;;;5059226;28;20732;-82
2022/07/24 08:36:25;;;;;;;5.78;3.42;;;;;;;;;;5069816;28;20194;-79
2022/07/24 08:38:53;;;;;;;4.82;3.70;;;;;;;;;;5058074;28;20238;-83
2022/07/24 08:41:20;;;;;;;4.50;3.70;;;;;;;;;;5058612;28;20279;-79
2022/07/24 08:43:47;;;;;;;4.60;3.30;;;;;;;;;;5056820;28;20241;-81
2022/07/24 08:46:15;;;;;;;3.63;3.28;;;;;;;;;;5056143;28;20206;-80
2022/07/24 08:48:45;;;;;;;5.15;3.35;;;;;;;;;;5057905;28;20252;-79
2022/07/24 08:51:13;;;;;;;3.42;3.13;;;;;;;;;;5061036;28;20511;-81
2022/07/24 08:53:40;;;;;;;3.72;3.42;;;;;;;;;;5062801;28;20717;-80
2022/07/24 08:56:07;;;;;;;3.80;3.50;;;;;;;;;;5063157;28;20217;-82
2022/07/24 08:58:37;;;;;;;4.32;3.45;;;;;;;;;;5059026;28;20242;-81
2022/07/24 09:01:05;;;;;;;3.63;3.33;;;;;;;;;;5063529;28;20336;-81
2022/07/24 09:03:39;;;;;;;6.65;3.60;;;;;;;;;;5071724;28;20233;-80
2022/07/24 09:06:09;;;;;;;3.28;2.97;;;;;;;;;;5066769;28;20202;-81
2022/07/24 09:08:37;;;;;;;4.53;3.17;;;;;;;;;;5061278;28;20237;-80
2022/07/24 09:11:05;;;;;;;4.78;3.30;;;;;;;;;;5062295;28;20740;-82
2022/07/24 09:14:29;;;;;;;3.25;3.05;;;;;;;;;;5062375;28;20248;-81
2022/07/24 09:16:22;;;;;;;3.50;3.20;;;;;;;;;;5061129;28;20289;-80
2022/07/24 09:18:50;;;;;;;3.80;3.50;;;;;;;;;;5059530;28;20245;-80
2022/07/24 09:21:19;;;;;;;6.47;3.75;;;;;;;;;;5059225;28;20210;-79
2022/07/24 09:23:48;;;;;;;2.92;2.72;;;;;;;;;;5058423;28;20233;-81
2022/07/24 09:26:15;;;;;;;3.30;2.92;;;;;;;;;;5059608;28;20225;-80
2022/07/24 09:28:53;;;;;;;2.95;2.72;;;;;;;;;;5059104;28;20654;-79
2022/07/24 09:31:22;;;;;;;3.33;3.03;;;;;;;;;;5057270;28;20202;-80
2022/07/24 09:33:49;;;;;;;4.53;3.63;;;;;;;;;;5057200;28;20321;-79
2022/07/24 09:36:18;;;;;;;3.08;2.88;;;;;;;;;;5056373;28;20300;-87
2022/07/24 09:38:50;;;;;;;3.85;3.42;;;;;;;;;;5055029;28;20234;-87
2022/07/24 09:41:21;;;;;;;3.80;3.50;;;;;;;;;;5056020;28;20670;-86
2022/07/24 09:43:58;;;;;;;3.35;3.05;;;;;;;;;;5055943;28;20737;-88
2022/07/24 09:46:26;;;;;;;4.32;3.60;;;;;;;;;;5056258;28;20212;-87
2022/07/24 09:48:54;;;;;;;4.45;4.05;;;;;;;;;;5055126;28;20253;-85
2022/07/24 09:51:22;;;;;;;3.25;2.97;;;;;;;;;;5056579;28;20618;-85
2022/07/24 09:53:54;;;;;;;3.50;3.05;;;;;;;;;;5061751;28;20246;-87
2022/07/24 09:56:22;;;;;;;2.92;2.72;;;;;;;;;;5059984;28;20194;-87
2022/07/24 09:58:51;;;;;;;3.50;3.20;;;;;;;;;;5056932;28;20245;-88
2022/07/24 10:01:19;;;;;;;3.45;3.15;;;;;;;;;;5057149;28;20214;-88
2022/07/24 10:03:47;;;;;;;3.38;3.08;;;;;;;;;;5057645;28;20253;-86
2022/07/24 10:06:17;;;;;;;3.53;3.20;;;;;;;;;;5077323;28;20224;-85
2022/07/24 10:08:44;;;;;;;3.45;3.25;;;;;;;;;;5055323;28;20329;-85
2022/07/24 10:11:13;;;;;;;4.57;2.80;;;;;;;;;;5060980;28;20198;-88
2022/07/24 10:13:41;;;;;;;3.22;2.92;;;;;;;;;;5065083;28;20225;-88
2022/07/24 10:16:21;;;;;;;3.30;3.00;;;;;;;;;;5075316;28;20189;-87
2022/07/24 10:18:49;;;;;;;3.35;3.05;;;;;;;;;;5074564;28;20237;-89
2022/07/24 10:21:18;;;;;;;3.58;3.17;;;;;;;;;;5059761;28;20205;-87
2022/07/24 10:23:56;;;;;;;4.05;3.08;;;;;;;;;;5054202;28;20235;-87
2022/07/24 10:26:29;;;;;;;3.65;3.35;;;;;;;;;;5055031;28;20598;-88
2022/07/24 10:29:03;;;;;;;3.20;3.00;;;;;;;;;;5054441;28;20237;-86
2022/07/24 10:31:30;;;;;;;3.17;2.95;;;;;;;;;;5055768;28;20669;-88
2022/07/24 10:33:58;;;;;;;3.20;3.00;;;;;;;;;;5054492;28;20244;-87
2022/07/24 10:36:28;;;;;;;3.92;3.42;;;;;;;;;;5055509;28;20208;-88
2022/07/24 10:38:58;;;;;;;4.15;3.10;;;;;;;;;;5054986;28;20229;-87
2022/07/24 10:41:27;;;;;;;3.58;3.28;;;;;;;;;;5055282;28;20198;-86
2022/07/24 10:44:13;;;;;;;3.85;3.30;;;;;;;;;;5053854;28;20233;-86
2022/07/24 10:46:55;;;;;;;3.42;3.13;;;;;;;;;;5055996;28;20201;-88
2022/07/24 10:49:34;;;;;;;4.68;3.50;;;;;;;;;;5054464;28;20237;-87
2022/07/24 10:52:01;;;;;;;4.13;3.55;;;;;;;;;;5055650;28;20198;-87
2022/07/24 10:54:28;;;;;;;4.03;3.63;;;;;;;;;;5054627;28;20248;-86
2022/07/24 10:56:57;;;;;;;3.83;3.53;;;;;;;;;;5054635;28;20564;-86
2022/07/24 10:59:33;;;;;;;3.05;2.85;;;;;;;;;;5058223;28;20228;-85
2022/07/24 11:02:22;;;;;;;3.30;3.05;;;;;;;;;;5074899;28;20192;-87
2022/07/24 11:05:11;;;;;;;3.83;3.20;;;;;;;;;;5074455;28;20239;-88
2022/07/24 11:08:00;;;;;;;4.13;3.05;;;;;;;;;;5074535;28;20240;-88
2022/07/24 11:10:42;;;;;;;3.80;3.47;;;;;;;;;;5076955;28;20613;-88
2022/07/24 11:13:41;;;;;;;3.58;3.28;;;;;;;;;;5075241;28;20232;-88
2022/07/24 11:16:27;;;;;;;4.18;3.33;;;;;;;;;;5076310;28;20189;-88
2022/07/24 11:19:13;;;;;;;4.10;3.65;;;;;;;;;;5074936;28;20739;-86
2022/07/24 11:21:42;;;;;;;4.07;3.50;;;;;;;;;;5075099;28;20185;-88
2022/07/24 11:24:16;;;;;;;3.53;3.20;;;;;;;;;;5074335;28;20260;-87
2022/07/24 11:26:47;;;;;;;3.63;3.33;;;;;;;;;;5074169;28;20222;-86
2022/07/24 11:29:14;;;;;;;3.83;3.53;;;;;;;;;;5081829;28;20228;-86
2022/07/24 11:31:42;;;;;;;4.28;3.75;;;;;;;;;;5097269;28;20200;-86
2022/07/24 11:34:10;;;;;;;3.78;3.35;;;;;;;;;;5095610;28;20247;-87
2022/07/24 11:36:37;;;;;;;3.50;3.20;;;;;;;;;;5095959;28;20278;-87
2022/07/24 11:39:06;;;;;;;3.70;3.30;;;;;;;;;;5095799;28;20717;-89
2022/07/24 11:41:44;;;;;;;3.70;3.40;;;;;;;;;;5099027;28;20717;-87
2022/07/24 11:44:12;;;;;;;3.50;3.20;;;;;;;;;;5097047;28;20240;-88
2022/07/24 11:46:40;;;;;;;4.20;3.80;;;;;;;;;;5095187;28;20636;-86
2022/07/24 11:49:08;;;;;;;3.20;3.00;;;;;;;;;;5093846;28;20240;-88
2022/07/24 11:51:41;;;;;;;3.78;3.47;;;;;;;;;;5094106;28;20291;-88
2022/07/24 11:54:10;;;;;;;4.10;3.50;;;;;;;;;;5093304;28;20271;-89
2022/07/24 11:56:37;;;;;;;3.88;3.38;;;;;;;;;;5094550;28;20266;-87
2022/07/24 11:59:04;;;;;;;4.75;3.40;;;;;;;;;;5093630;28;20232;-90
2022/07/24 12:01:31;;;;;;;4.32;3.35;;;;;;;;;;5095781;28;20193;-89
2022/07/24 12:03:59;;;;;;;3.72;3.42;;;;;;;;;;5094803;28;20240;-88
2022/07/24 12:06:27;;;;;;;4.25;3.47;;;;;;;;;;5095639;28;20192;-87
2022/07/24 12:08:58;;;;;;;3.63;3.30;;;;;;;;;;5097317;28;20235;-86
2022/07/24 12:11:26;;;;;;;3.80;3.50;;;;;;;;;;5097886;28;20200;-88
2022/07/24 12:13:53;;;;;;;3.63;3.33;;;;;;;;;;5097521;28;20231;-90
2022/07/24 12:16:25;;;;;;;3.47;3.17;;;;;;;;;;5095725;28;20204;-86
2022/07/24 12:18:52;;;;;;;3.85;3.55;;;;;;;;;;5095234;28;20318;-87
2022/07/24 12:21:19;;;;;;;4.32;3.22;;;;;;;;;;5094588;28;20207;-87
2022/07/24 12:23:46;;;;;;;5.10;3.53;;;;;;;;;;5094430;28;20638;-87
2022/07/24 12:26:14;;;;;;;4.28;3.67;;;;;;;;;;5094630;28;20683;-86
2022/07/24 12:28:42;;;;;;;3.05;2.85;;;;;;;;;;5094226;28;20239;-87
2022/07/24 12:31:09;;;;;;;5.13;4.18;;;;;;;;;;5094406;28;20225;-87
2022/07/24 12:33:37;;;;;;;4.30;3.90;;;;;;;;;;5084933;28;20708;-88
2022/07/24 12:36:08;;;;;;;3.78;3.47;;;;;;;;;;5072783;28;20222;-88
2022/07/24 12:38:36;;;;;;;3.47;3.17;;;;;;;;;;5071613;28;20232;-87
2022/07/24 12:41:04;;;;;;;3.65;3.35;;;;;;;;;;5072148;28;20614;-87
2022/07/24 12:43:31;;;;;;;3.80;3.50;;;;;;;;;;5072124;28;20302;-87
2022/07/24 12:46:10;;;;;;;3.97;3.67;;;;;;;;;;5073133;28;20200;-88
2022/07/24 12:48:37;;;;;;;3.67;3.38;;;;;;;;;;5072485;28;20729;-88
2022/07/24 12:51:09;;;;;;;3.75;3.45;;;;;;;;;;5073847;28;20205;-88
2022/07/24 12:53:37;;;;;;;4.15;3.78;;;;;;;;;;5077084;28;20233;-87
2022/07/24 12:56:05;;;;;;;3.60;3.30;;;;;;;;;;5076853;28;20205;-88
2022/07/24 12:58:47;;;;;;;3.70;3.35;;;;;;;;;;5075300;28;20232;-87
2022/07/24 13:01:16;;;;;;;3.45;3.25;;;;;;;;;;5075332;28;20189;-88
2022/07/24 13:03:44;;;;;;;4.05;3.75;;;;;;;;;;5072896;28;20256;-88
2022/07/24 13:06:11;;;;;;;3.67;3.42;;;;;;;;;;5073053;28;20627;-87
2022/07/24 13:08:38;;;;;;;3.70;3.40;;;;;;;;;;5073803;28;20232;-88
2022/07/24 13:11:05;;;;;;;4.15;3.75;;;;;;;;;;5075809;28;20181;-87
2022/07/24 13:13:32;;;;;;;3.85;3.40;;;;;;;;;;5075393;28;20232;-88
2022/07/24 13:15:59;;;;;;;4.22;3.90;;;;;;;;;;5076096;28;20204;-87
2022/07/24 13:18:27;;;;;;;4.43;3.83;;;;;;;;;;5075425;28;20235;-86
2022/07/24 13:20:54;;;;;;;4.00;3.58;;;;;;;;;;5075820;28;20668;-87
2022/07/24 13:23:21;;;;;;;5.03;3.40;;;;;;;;;;5075514;28;20239;-87
2022/07/24 13:25:48;;;;;;;3.83;3.53;;;;;;;;;;5076509;28;20224;-87
2022/07/24 13:28:15;;;;;;;3.70;3.38;;;;;;;;;;5076163;28;20233;-87
2022/07/24 13:30:43;;;;;;;4.50;3.47;;;;;;;;;;5075812;28;20189;-90
2022/07/24 13:33:10;;;;;;;3.80;3.50;;;;;;;;;;5075571;28;20252;-87
2022/07/24 13:35:38;;;;;;;5.60;3.60;;;;;;;;;;5076387;28;20233;-87
2022/07/24 13:38:05;;;;;;;3.67;3.38;;;;;;;;;;5075938;28;20236;-88
2022/07/24 13:40:32;;;;;;;3.80;3.50;;;;;;;;;;5084201;28;20216;-86
2022/07/24 13:42:59;;;;;;;3.88;3.50;;;;;;;;;;5077078;28;20224;-86
2022/07/24 13:45:26;;;;;;;7.38;3.60;;;;;;;;;;5077667;28;20712;-89
2022/07/24 13:47:53;;;;;;;4.03;3.72;;;;;;;;;;5076007;28;20236;-90
2022/07/24 13:50:20;;;;;;;4.53;4.13;;;;;;;;;;5076183;28;20208;-88
2022/07/24 13:52:49;;;;;;;4.03;3.63;;;;;;;;;;5077005;28;20240;-87
2022/07/24 13:55:16;;;;;;;3.92;3.63;;;;;;;;;;5076046;28;20232;-88
2022/07/24 13:57:43;;;;;;;4.28;3.88;;;;;;;;;;5074997;28;20236;-89
2022/07/24 14:00:11;;;;;;;4.10;3.80;;;;;;;;;;5075870;28;20193;-90
2022/07/24 14:02:38;;;;;;;4.38;3.97;;;;;;;;;;5074751;28;20229;-90
2022/07/24 14:05:05;;;;;;;5.05;4.55;;;;;;;;;;5075081;28;20346;-89
2022/07/24 14:07:32;;;;;;;5.20;4.18;;;;;;;;;;5074807;28;20798;-89
2022/07/24 14:10:00;;;;;;;5.35;3.85;;;;;;;;;;5075633;28;20221;-89
2022/07/24 14:12:28;;;;;;;3.90;3.28;;;;;;;;;;5074509;28;20205;-89
2022/07/24 14:14:55;;;;;;;3.78;3.47;;;;;;;;;;5075247;28;20228;-88
2022/07/24 14:17:22;;;;;;;4.30;3.90;;;;;;;;;;5074934;28;20201;-88
2022/07/24 14:19:49;;;;;;;4.05;3.72;;;;;;;;;;5075564;28;20207;-89
2022/07/24 14:22:16;;;;;;;5.22;3.70;;;;;;;;;;5075340;28;20207;-88
2022/07/24 14:24:43;;;;;;;3.67;3.38;;;;;;;;;;5076032;28;20221;-85
2022/07/24 14:27:12;;;;;;;4.07;3.65;;;;;;;;;;5075501;28;20219;-88
2022/07/24 14:29:39;;;;;;;9.23;8.40;;;;;;;;;;5075802;28;20229;-88
2022/07/24 14:32:06;;;;;;;32.80;27.45;;;;;;;;;;5075529;28;20212;-87
2022/07/24 14:34:33;;;;;;;4.10;3.70;;;;;;;;;;5076269;28;20301;-89
2022/07/24 14:37:00;;;;;;;4.50;4.10;;;;;;;;;;5077622;28;20239;-89
2022/07/24 14:39:28;;;;;;;4.78;4.25;;;;;;;;;;5075897;28;20236;-89
2022/07/24 14:41:55;;;;;;;4.53;3.92;;;;;;;;;;5076001;28;20712;-86
2022/07/24 14:44:24;;;;;;;4.72;4.22;;;;;;;;;;5075021;28;20233;-90
2022/07/24 14:46:52;;;;;;;4.50;4.20;;;;;;;;;;5076371;28;20204;-88
2022/07/24 14:49:19;;;;;;;3.85;3.55;;;;;;;;;;5075513;28;20225;-88
2022/07/24 14:51:46;;;;;;;4.60;4.20;;;;;;;;;;5075685;28;20192;-88